createdAt,value
2018-12-22T00:02:01.561Z,-1.87
2018-12-22T00:04:30.323Z,-1.90
2018-12-22T00:06:59.044Z,-1.82
2018-12-22T00:09:27.793Z,-1.80
2018-12-22T00:11:56.540Z,-1.72
2018-12-22T00:14:25.230Z,-1.78
2018-12-22T00:16:54.059Z,-1.73
2018-12-22T00:19:22.759Z,-1.60
2018-12-22T00:21:51.483Z,-1.63
2018-12-22T00:24:20.265Z,-1.60
2018-12-22T00:26:49.020Z,-1.72
2018-12-22T00:29:17.685Z,-1.74
2018-12-22T00:31:46.330Z,-1.71
2018-12-22T00:34:15.075Z,-1.63
2018-12-22T00:36:43.837Z,-1.55
2018-12-22T00:39:12.619Z,-1.52
2018-12-22T00:41:41.402Z,-1.61
2018-12-22T00:44:10.147Z,-1.53
2018-12-22T00:46:38.897Z,-1.54
2018-12-22T00:49:07.693Z,-1.56
2018-12-22T00:51:36.504Z,-1.60
2018-12-22T00:54:05.547Z,-1.71
2018-12-22T00:56:34.326Z,-1.63
2018-12-22T00:59:03.040Z,-1.60
2018-12-22T01:01:31.804Z,-1.59
2018-12-22T01:04:00.594Z,-1.59
2018-12-22T01:06:29.380Z,-1.65
2018-12-22T01:08:58.582Z,-1.65
2018-12-22T01:11:27.419Z,-1.68
2018-12-22T01:13:56.183Z,-1.65
2018-12-22T01:16:24.862Z,-1.62
2018-12-22T01:18:53.606Z,-1.56
2018-12-22T01:21:22.349Z,-1.57
2018-12-22T01:23:51.889Z,-1.57
2018-12-22T01:26:21.420Z,-1.65
2018-12-22T01:28:50.168Z,-1.61
2018-12-22T01:31:18.829Z,-1.64
2018-12-22T01:33:47.540Z,-1.71
2018-12-22T01:36:16.342Z,-1.66
2018-12-22T01:38:45.110Z,-1.72
2018-12-22T01:41:13.887Z,-1.69
2018-12-22T01:43:42.632Z,-1.70
2018-12-22T01:46:11.378Z,-1.87
2018-12-22T01:48:40.086Z,-1.90
2018-12-22T01:51:08.861Z,-1.83
2018-12-22T01:53:37.690Z,-2.01
2018-12-22T01:56:06.436Z,-2.07
2018-12-22T01:58:35.188Z,-2.01
2018-12-22T02:01:04.412Z,-1.99
2018-12-22T02:03:33.172Z,-1.95
2018-12-22T02:06:02.002Z,-1.95
2018-12-22T02:08:30.763Z,-1.91
2018-12-22T02:10:59.511Z,-1.90
2018-12-22T02:13:28.320Z,-1.90
2018-12-22T02:15:57.109Z,-1.92
2018-12-22T02:18:25.887Z,-1.87
2018-12-22T02:20:54.579Z,-1.86
2018-12-22T02:23:23.302Z,-1.88
2018-12-22T02:25:52.230Z,-1.83
2018-12-22T02:28:20.964Z,-1.91
2018-12-22T02:30:50.032Z,-1.84
2018-12-22T02:33:18.813Z,-1.83
2018-12-22T02:35:47.676Z,-1.86
2018-12-22T02:38:16.439Z,-1.83
2018-12-22T02:40:45.222Z,-1.83
2018-12-22T02:43:14.007Z,-1.94
2018-12-22T02:45:42.730Z,-2.00
2018-12-22T02:48:11.533Z,-1.93
2018-12-22T02:50:40.232Z,-1.93
2018-12-22T02:53:09.122Z,-1.95
2018-12-22T02:55:37.941Z,-2.01
2018-12-22T02:58:06.926Z,-2.04
2018-12-22T03:00:35.628Z,-1.93
2018-12-22T03:03:04.885Z,-1.90
2018-12-22T03:05:33.693Z,-1.92
2018-12-22T03:08:02.422Z,-1.87
2018-12-22T03:10:31.222Z,-1.84
2018-12-22T03:12:59.913Z,-1.81
2018-12-22T03:15:28.624Z,-1.76
2018-12-22T03:17:57.352Z,-1.68
2018-12-22T03:20:26.101Z,-1.69
2018-12-22T03:22:54.814Z,-1.83
2018-12-22T03:25:23.568Z,-1.87
2018-12-22T03:27:52.258Z,-1.81
2018-12-22T03:30:21.016Z,-1.83
2018-12-22T03:32:49.851Z,-1.87
2018-12-22T03:35:19.266Z,-1.84
2018-12-22T03:37:48.015Z,-1.80
2018-12-22T03:40:16.818Z,-1.79
2018-12-22T03:42:45.570Z,-1.75
2018-12-22T03:45:14.339Z,-1.80
2018-12-22T03:47:43.133Z,-1.80
2018-12-22T03:50:11.901Z,-1.82
2018-12-22T03:52:40.634Z,-1.80
2018-12-22T03:55:09.757Z,-1.73
2018-12-22T03:57:38.466Z,-1.77
2018-12-22T04:00:11.471Z,-1.83
2018-12-22T04:02:40.194Z,-1.84
2018-12-22T04:05:09.025Z,-1.97
2018-12-22T04:07:37.807Z,-2.18
2018-12-22T04:10:07.504Z,-2.21
2018-12-22T04:12:36.231Z,-2.03
2018-12-22T04:15:05.957Z,-2.06
2018-12-22T04:17:34.821Z,-2.10
2018-12-22T04:20:04.871Z,-2.09
2018-12-22T04:22:33.850Z,-2.07
2018-12-22T04:25:02.591Z,-2.06
2018-12-22T04:27:31.312Z,-2.00
2018-12-22T04:30:00.020Z,-2.04
2018-12-22T04:32:28.744Z,-2.01
2018-12-22T04:34:57.448Z,-1.93
2018-12-22T04:37:26.272Z,-1.89
2018-12-22T04:39:54.999Z,-1.83
2018-12-22T04:42:23.750Z,-1.81
2018-12-22T04:44:52.444Z,-1.74
2018-12-22T04:47:21.306Z,-1.74
2018-12-22T04:49:50.077Z,-1.70
2018-12-22T04:52:18.826Z,-1.68
2018-12-22T04:54:47.497Z,-1.70
2018-12-22T04:57:16.282Z,-1.77
2018-12-22T04:59:45.004Z,-1.83
2018-12-22T05:02:13.726Z,-1.85
2018-12-22T05:04:42.443Z,-1.87
2018-12-22T05:07:11.159Z,-1.85
2018-12-22T05:09:39.845Z,-1.94
2018-12-22T05:12:08.663Z,-1.90
2018-12-22T05:14:37.372Z,-1.94
2018-12-22T05:17:06.188Z,-2.00
2018-12-22T05:19:34.972Z,-2.01
2018-12-22T05:22:03.686Z,-2.06
2018-12-22T05:24:32.477Z,-2.03
2018-12-22T05:27:01.246Z,-1.97
2018-12-22T05:29:29.994Z,-1.94
2018-12-22T05:31:58.706Z,-1.77
2018-12-22T05:34:27.383Z,-1.70
2018-12-22T05:36:56.169Z,-1.65
2018-12-22T05:39:24.939Z,-1.60
2018-12-22T05:41:53.702Z,-1.57
2018-12-22T05:44:22.594Z,-1.59
2018-12-22T05:46:51.333Z,-1.71
2018-12-22T05:49:23.300Z,-1.77
2018-12-22T05:51:51.993Z,-1.81
2018-12-22T05:54:20.810Z,-1.71
2018-12-22T05:56:49.568Z,-1.76
2018-12-22T05:59:18.300Z,-1.77
2018-12-22T06:01:47.001Z,-1.66
2018-12-22T06:04:15.704Z,-1.70
2018-12-22T06:06:44.461Z,-1.70
2018-12-22T06:09:13.219Z,-1.70
2018-12-22T06:11:41.957Z,-1.68
2018-12-22T06:14:10.706Z,-1.62
2018-12-22T06:16:39.478Z,-1.58
2018-12-22T06:19:08.435Z,-1.51
2018-12-22T06:21:37.259Z,-1.46
2018-12-22T06:24:05.954Z,-1.49
2018-12-22T06:26:34.681Z,-1.50
2018-12-22T06:29:03.472Z,-1.46
2018-12-22T06:31:32.202Z,-1.57
2018-12-22T06:34:00.870Z,-1.63
2018-12-22T06:36:29.692Z,-1.64
2018-12-22T06:38:58.468Z,-1.71
2018-12-22T06:41:27.287Z,-1.78
2018-12-22T06:43:55.980Z,-1.96
2018-12-22T06:46:24.680Z,-1.98
2018-12-22T06:48:53.386Z,-1.99
2018-12-22T06:51:22.158Z,-2.12
2018-12-22T06:53:50.899Z,-2.16
2018-12-22T06:56:19.761Z,-2.40
2018-12-22T06:58:48.578Z,-2.49
2018-12-22T07:01:17.290Z,-2.55
2018-12-22T07:03:46.294Z,-2.34
2018-12-22T07:06:15.054Z,-2.24
2018-12-22T07:08:43.723Z,-2.42
2018-12-22T07:11:12.490Z,-2.23
2018-12-22T07:13:41.179Z,-2.08
2018-12-22T07:16:10.105Z,-2.23
2018-12-22T07:18:38.800Z,-2.26
2018-12-22T07:21:07.572Z,-2.04
2018-12-22T07:23:36.462Z,-1.86
2018-12-22T07:26:05.604Z,-1.60
2018-12-22T07:28:34.528Z,-1.56
2018-12-22T07:31:03.345Z,-1.42
2018-12-22T07:33:32.745Z,-1.36
2018-12-22T07:36:01.439Z,-1.22
2018-12-22T07:38:30.241Z,-1.09
2018-12-22T07:40:59.039Z,-0.99
2018-12-22T07:43:27.865Z,-0.89
2018-12-22T07:45:56.607Z,-0.73
2018-12-22T07:48:25.349Z,-0.73
2018-12-22T07:50:54.078Z,-0.85
2018-12-22T07:53:22.828Z,-0.81
2018-12-22T07:55:51.755Z,-0.90
2018-12-22T07:58:20.609Z,-0.78
2018-12-22T08:00:49.436Z,-0.80
2018-12-22T08:03:18.277Z,-0.76
2018-12-22T08:05:47.300Z,-0.84
2018-12-22T08:08:16.098Z,-0.82
2018-12-22T08:10:44.778Z,-0.85
2018-12-22T08:13:13.575Z,-0.72
2018-12-22T08:15:43.143Z,-0.70
2018-12-22T08:18:12.692Z,-0.57
2018-12-22T08:20:41.467Z,-0.46
2018-12-22T08:23:10.301Z,-0.51
2018-12-22T08:25:39.071Z,-0.61
2018-12-22T08:28:07.800Z,-0.44
2018-12-22T08:30:43.510Z,-0.30
2018-12-22T08:33:07.414Z,-0.13
2018-12-22T08:35:36.158Z,0.02
2018-12-22T08:38:05.000Z,0.06
2018-12-22T08:40:33.778Z,0.13
2018-12-22T08:43:02.677Z,0.23
2018-12-22T08:45:31.428Z,0.29
2018-12-22T08:50:38.256Z,0.43
2018-12-22T08:53:07.420Z,0.47
2018-12-22T08:55:36.133Z,0.56
2018-12-22T08:58:04.890Z,0.62
2018-12-22T09:00:33.664Z,0.81
2018-12-22T09:03:02.451Z,0.84
2018-12-22T09:05:31.194Z,0.95
2018-12-22T09:07:59.919Z,0.94
2018-12-22T09:10:29.089Z,0.98
2018-12-22T09:12:57.924Z,1.08
2018-12-22T09:15:26.665Z,1.25
2018-12-22T09:17:55.565Z,1.31
2018-12-22T09:20:24.408Z,1.40
2018-12-22T09:22:53.254Z,1.37
2018-12-22T09:25:22.085Z,1.37
2018-12-22T09:27:50.867Z,1.50
2018-12-22T09:30:19.786Z,1.59
2018-12-22T09:32:48.440Z,1.73
2018-12-22T09:35:17.160Z,1.79
2018-12-22T09:37:46.424Z,1.80
2018-12-22T09:40:15.166Z,1.91
2018-12-22T09:42:43.881Z,1.96
2018-12-22T09:45:12.639Z,2.02
2018-12-22T09:47:41.380Z,2.05
2018-12-22T09:50:13.195Z,2.11
2018-12-22T09:52:42.217Z,2.22
2018-12-22T09:55:10.939Z,2.23
2018-12-22T09:57:39.699Z,2.36
2018-12-22T10:00:13.221Z,2.39
2018-12-22T10:02:42.350Z,2.52
2018-12-22T10:05:11.061Z,2.63
2018-12-22T10:07:39.854Z,2.63
2018-12-22T10:10:14.408Z,2.74
2018-12-22T10:12:43.135Z,2.91
2018-12-22T10:15:11.916Z,2.98
2018-12-22T10:17:40.865Z,3.14
2018-12-22T10:20:09.909Z,3.16
2018-12-22T10:22:38.644Z,3.34
2018-12-22T10:25:10.355Z,3.41
2018-12-22T10:27:39.128Z,3.44
2018-12-22T10:30:15.683Z,3.30
2018-12-22T10:32:44.482Z,3.43
2018-12-22T10:35:23.557Z,3.41
2018-12-22T10:37:52.324Z,3.51
2018-12-22T10:40:21.165Z,3.57
2018-12-22T10:42:49.965Z,3.41
2018-12-22T10:45:18.687Z,3.43
2018-12-22T10:47:47.446Z,3.47
2018-12-22T10:50:16.254Z,3.55
2018-12-22T10:52:44.997Z,3.57
2018-12-22T10:55:13.696Z,3.51
2018-12-22T10:57:42.471Z,3.48
2018-12-22T11:00:14.188Z,3.51
2018-12-22T11:02:43.002Z,3.57
2018-12-22T11:05:13.367Z,3.63
2018-12-22T11:07:43.202Z,3.71
2018-12-22T11:10:20.441Z,3.76
2018-12-22T11:12:49.184Z,3.90
2018-12-22T11:15:17.945Z,3.91
2018-12-22T11:17:47.145Z,3.73
2018-12-22T11:20:16.335Z,3.87
2018-12-22T11:22:45.050Z,3.83
2018-12-22T11:25:16.768Z,3.84
2018-12-22T11:27:46.004Z,3.70
2018-12-22T11:30:19.712Z,3.65
2018-12-22T11:32:48.562Z,3.87
2018-12-22T11:35:17.428Z,3.58
2018-12-22T11:37:46.153Z,3.58
2018-12-22T11:40:14.873Z,3.70
2018-12-22T11:42:47.669Z,3.86
2018-12-22T11:45:14.388Z,3.90
2018-12-22T11:47:57.089Z,3.93
2018-12-22T11:50:27.317Z,4.03
2018-12-22T11:52:56.218Z,4.17
2018-12-22T11:55:24.987Z,4.08
2018-12-22T11:57:54.042Z,4.06
2018-12-22T12:00:22.862Z,4.17
2018-12-22T12:02:51.661Z,4.29
2018-12-22T12:05:20.364Z,4.47
2018-12-22T12:07:49.140Z,4.45
2018-12-22T12:10:17.972Z,4.46
2018-12-22T12:12:46.844Z,4.53
2018-12-22T12:15:19.451Z,4.54
2018-12-22T12:18:30.479Z,4.55
2018-12-22T12:20:59.236Z,4.58
2018-12-22T12:23:28.132Z,4.39
2018-12-22T12:25:57.033Z,4.55
2018-12-22T12:28:26.612Z,4.36
2018-12-22T12:31:24.501Z,4.52
2018-12-22T12:34:23.436Z,4.57
2018-12-22T12:37:23.208Z,4.52
2018-12-22T12:43:29.973Z,4.41
2018-12-22T12:46:28.788Z,4.46
2018-12-22T12:49:27.493Z,4.47
2018-12-22T12:52:29.440Z,4.61
2018-12-22T12:55:29.141Z,4.72
2018-12-22T12:58:28.063Z,4.64
2018-12-22T13:01:27.083Z,4.67
2018-12-22T13:04:26.945Z,4.69
2018-12-22T13:07:25.701Z,4.74
2018-12-22T13:10:26.066Z,4.74
2018-12-22T13:13:32.847Z,4.82
2018-12-22T13:16:31.593Z,4.72
2018-12-22T13:19:30.063Z,4.84
2018-12-22T13:22:29.738Z,4.94
2018-12-22T13:25:29.636Z,4.93
2018-12-22T13:28:29.065Z,4.98
2018-12-22T13:31:29.954Z,4.97
2018-12-22T13:34:28.799Z,5.02
2018-12-22T13:37:26.736Z,5.10
2018-12-22T13:40:26.275Z,5.08
2018-12-22T13:43:25.025Z,5.14
2018-12-22T13:46:23.956Z,5.11
2018-12-22T13:49:22.077Z,5.06
2018-12-22T13:52:22.652Z,5.06
2018-12-22T13:55:23.372Z,4.98
2018-12-22T13:58:21.280Z,4.83
2018-12-22T14:01:24.160Z,4.72
2018-12-22T14:04:23.992Z,4.53
2018-12-22T14:06:52.722Z,4.42
2018-12-22T14:09:21.438Z,4.38
2018-12-22T14:11:50.235Z,4.31
2018-12-22T14:14:21.886Z,4.18
2018-12-22T14:16:54.667Z,4.08
2018-12-22T14:19:23.604Z,4.06
2018-12-22T14:21:52.640Z,3.98
2018-12-22T14:24:42.047Z,3.94
2018-12-22T14:27:11.516Z,3.85
2018-12-22T14:29:40.203Z,3.77
2018-12-22T14:32:08.949Z,3.80
2018-12-22T14:34:56.073Z,3.73
2018-12-22T14:37:24.830Z,3.67
2018-12-22T14:39:53.500Z,3.60
2018-12-22T14:42:22.353Z,3.57
2018-12-22T14:44:51.278Z,3.54
2018-12-22T14:47:20.172Z,3.52
2018-12-22T14:49:48.908Z,3.44
2018-12-22T14:52:17.649Z,3.44
2018-12-22T14:54:46.593Z,3.38
2018-12-22T14:57:15.660Z,3.40
2018-12-22T14:59:45.742Z,3.24
2018-12-22T15:02:14.527Z,3.05
2018-12-22T15:04:43.276Z,3.11
2018-12-22T15:07:12.044Z,3.09
2018-12-22T15:09:40.745Z,3.08
2018-12-22T15:12:09.551Z,2.97
2018-12-22T15:14:38.250Z,2.93
2018-12-22T15:17:07.604Z,2.86
2018-12-22T15:19:38.354Z,2.84
2018-12-22T15:22:07.103Z,2.79
2018-12-22T15:24:36.467Z,2.75
2018-12-22T15:27:05.200Z,2.76
2018-12-22T15:29:33.896Z,2.76
2018-12-22T15:32:02.585Z,2.75
2018-12-22T15:34:31.293Z,2.78
2018-12-22T15:37:00.066Z,2.70
2018-12-22T15:39:28.759Z,2.68
2018-12-22T15:41:57.510Z,2.70
2018-12-22T15:44:26.249Z,2.67
2018-12-22T15:46:55.000Z,2.63
2018-12-22T15:49:24.215Z,2.55
2018-12-22T15:51:53.018Z,2.62
2018-12-22T15:54:21.774Z,2.63
2018-12-22T15:56:50.470Z,2.65
2018-12-22T15:59:19.673Z,2.60
2018-12-22T16:01:48.375Z,2.68
2018-12-22T16:04:17.079Z,2.68
2018-12-22T16:06:45.876Z,2.65
2018-12-22T16:09:14.607Z,2.59
2018-12-22T16:11:43.326Z,2.55
2018-12-22T16:14:12.076Z,2.56
2018-12-22T16:16:40.789Z,2.58
2018-12-22T16:19:09.734Z,2.58
2018-12-22T16:21:38.501Z,2.47
2018-12-22T16:24:07.284Z,2.44
2018-12-22T16:26:36.122Z,2.49
2018-12-22T16:29:11.564Z,2.52
2018-12-22T16:31:40.256Z,2.54
2018-12-22T16:34:09.022Z,2.53
2018-12-22T16:36:38.349Z,2.47
2018-12-22T16:39:08.807Z,2.53
2018-12-22T16:41:37.750Z,2.47
2018-12-22T16:44:09.655Z,2.52
2018-12-22T16:46:38.420Z,2.47
2018-12-22T16:49:07.197Z,2.41
2018-12-22T16:51:35.969Z,2.32
2018-12-22T16:54:05.228Z,2.30
2018-12-22T16:56:33.979Z,2.30
2018-12-22T16:59:02.987Z,2.33
2018-12-22T17:01:41.574Z,2.31
2018-12-22T17:04:10.381Z,2.30
2018-12-22T17:06:40.631Z,2.30
2018-12-22T17:09:11.050Z,2.21
2018-12-22T17:11:40.100Z,2.16
2018-12-22T17:14:08.892Z,2.17
2018-12-22T17:16:38.010Z,2.23
2018-12-22T17:19:07.135Z,2.15
2018-12-22T17:21:43.012Z,2.11
2018-12-22T17:24:16.603Z,2.12
2018-12-22T17:26:46.189Z,1.96
2018-12-22T17:29:14.971Z,1.90
2018-12-22T17:31:44.095Z,1.97
2018-12-22T17:34:13.193Z,1.89
2018-12-22T17:36:41.975Z,1.91
2018-12-22T17:39:12.787Z,1.87
2018-12-22T17:41:42.484Z,1.84
2018-12-22T17:44:11.249Z,1.85
2018-12-22T17:46:40.068Z,1.85
2018-12-22T17:49:08.795Z,1.87
2018-12-22T17:51:37.588Z,1.84
2018-12-22T17:54:06.377Z,1.75
2018-12-22T17:56:35.147Z,1.75
2018-12-22T17:59:03.922Z,1.73
2018-12-22T18:01:33.100Z,1.75
2018-12-22T18:04:01.864Z,1.73
2018-12-22T18:06:30.579Z,1.69
2018-12-22T18:08:59.995Z,1.69
2018-12-22T18:11:28.747Z,1.68
2018-12-22T18:13:57.464Z,1.64
2018-12-22T18:16:26.290Z,1.66
2018-12-22T18:18:55.018Z,1.63
2018-12-22T18:21:23.963Z,1.70
2018-12-22T18:23:53.767Z,1.70
2018-12-22T18:26:22.572Z,1.64
2018-12-22T18:28:51.352Z,1.61
2018-12-22T18:31:20.121Z,1.60
2018-12-22T18:33:48.950Z,1.52
2018-12-22T18:36:17.801Z,1.33
2018-12-22T18:38:51.747Z,1.37
2018-12-22T18:41:20.586Z,1.43
2018-12-22T18:43:49.353Z,1.47
2018-12-22T18:46:18.018Z,1.52
2018-12-22T18:48:46.745Z,1.62
2018-12-22T18:51:15.461Z,1.67
2018-12-22T18:53:44.203Z,1.66
2018-12-22T18:56:13.020Z,1.59
2018-12-22T18:58:41.675Z,1.60
2018-12-22T19:01:10.395Z,1.57
2018-12-22T19:03:44.755Z,1.62
2018-12-22T19:06:09.886Z,1.60
2018-12-22T19:08:38.744Z,1.60
2018-12-22T19:11:10.339Z,1.59
2018-12-22T19:13:39.107Z,1.62
2018-12-22T19:16:07.845Z,1.58
2018-12-22T19:18:36.752Z,1.57
2018-12-22T19:21:05.504Z,1.62
2018-12-22T19:23:34.326Z,1.63
2018-12-22T19:26:03.090Z,1.63
2018-12-22T19:28:31.859Z,1.57
2018-12-22T19:31:00.588Z,1.65
2018-12-22T19:33:29.351Z,1.69
2018-12-22T19:35:58.113Z,1.76
2018-12-22T19:38:26.808Z,1.71
2018-12-22T19:40:55.522Z,1.74
2018-12-22T19:43:24.319Z,1.74
2018-12-22T19:45:53.075Z,1.81
2018-12-22T19:48:21.861Z,1.79
2018-12-22T19:50:50.652Z,1.88
2018-12-22T19:53:19.868Z,1.98
2018-12-22T19:55:48.649Z,2.06
2018-12-22T19:58:17.465Z,2.07
2018-12-22T20:00:46.159Z,2.09
2018-12-22T20:03:14.965Z,2.03
2018-12-22T20:05:43.800Z,1.97
2018-12-22T20:08:12.622Z,2.02
2018-12-22T20:10:41.314Z,2.00
2018-12-22T20:13:10.149Z,2.05
2018-12-22T20:15:38.905Z,2.03
2018-12-22T20:18:07.641Z,2.14
2018-12-22T20:20:36.353Z,2.20
2018-12-22T20:23:05.218Z,2.23
2018-12-22T20:25:34.032Z,2.26
2018-12-22T20:28:02.832Z,2.34
2018-12-22T20:30:31.640Z,2.43
2018-12-22T20:33:00.431Z,2.53
2018-12-22T20:35:29.279Z,2.58
2018-12-22T20:37:58.165Z,2.61
2018-12-22T20:40:26.843Z,2.68
2018-12-22T20:42:55.645Z,2.70
2018-12-22T20:45:24.414Z,2.67
2018-12-22T20:47:53.505Z,2.70
2018-12-22T20:50:22.416Z,2.74
2018-12-22T20:52:51.190Z,2.79
2018-12-22T20:55:21.141Z,2.85
2018-12-22T20:57:50.623Z,2.92
2018-12-22T21:00:20.148Z,2.98
2018-12-22T21:02:49.072Z,2.97
2018-12-22T21:05:19.023Z,2.89
2018-12-22T21:07:48.498Z,2.94
2018-12-22T21:10:17.675Z,2.95
2018-12-22T21:12:46.488Z,2.90
2018-12-22T21:15:15.972Z,2.91
2018-12-22T21:17:44.983Z,2.88
2018-12-22T21:20:13.688Z,2.81
2018-12-22T21:22:42.400Z,2.84
2018-12-22T21:25:11.190Z,2.87
2018-12-22T21:27:39.931Z,2.87
2018-12-22T21:30:09.448Z,2.94
2018-12-22T21:32:38.271Z,2.89
2018-12-22T21:35:07.087Z,2.89
2018-12-22T21:37:35.869Z,2.91
2018-12-22T21:40:06.086Z,2.86
2018-12-22T21:42:39.907Z,2.89
2018-12-22T21:45:08.733Z,2.85
2018-12-22T21:47:37.456Z,2.91
2018-12-22T21:50:06.716Z,2.92
2018-12-22T21:52:35.449Z,3.01
2018-12-22T21:55:04.149Z,2.99
2018-12-22T21:57:32.902Z,3.06
2018-12-22T22:00:01.703Z,3.14
2018-12-22T22:02:30.424Z,3.20
2018-12-22T22:04:59.266Z,3.31
2018-12-22T22:07:28.004Z,3.28
2018-12-22T22:09:57.555Z,3.36
2018-12-22T22:12:26.252Z,3.43
2018-12-22T22:14:54.964Z,3.43
2018-12-22T22:17:23.844Z,3.43
2018-12-22T22:19:52.669Z,3.32
2018-12-22T22:22:21.351Z,3.27
2018-12-22T22:24:50.118Z,3.26
2018-12-22T22:27:18.931Z,3.31
2018-12-22T22:29:47.748Z,3.32
2018-12-22T22:32:16.618Z,3.33
2018-12-22T22:34:45.635Z,3.41
2018-12-22T22:37:14.950Z,3.44
2018-12-22T22:39:43.638Z,3.34
2018-12-22T22:42:12.350Z,3.19
2018-12-22T22:44:41.018Z,3.05
2018-12-22T22:47:09.934Z,3.03
2018-12-22T22:49:38.660Z,3.13
2018-12-22T22:52:09.654Z,3.25
2018-12-22T22:54:38.618Z,3.36
2018-12-22T22:57:07.465Z,3.44
2018-12-22T22:59:36.275Z,3.47
2018-12-22T23:02:04.948Z,3.49
2018-12-22T23:04:33.735Z,3.51
2018-12-22T23:07:02.704Z,3.45
2018-12-22T23:09:34.479Z,3.45
2018-12-22T23:12:03.294Z,3.50
2018-12-22T23:14:32.040Z,3.56
2018-12-22T23:17:00.768Z,3.54
2018-12-22T23:19:29.506Z,3.53
2018-12-22T23:21:58.811Z,3.49
2018-12-22T23:24:27.632Z,3.48
2018-12-22T23:26:57.853Z,3.43
2018-12-22T23:29:26.594Z,3.41
2018-12-22T23:31:55.456Z,3.44
2018-12-22T23:34:28.455Z,3.35
2018-12-22T23:36:57.179Z,3.36
2018-12-22T23:39:25.872Z,3.36
2018-12-22T23:41:56.767Z,3.43
2018-12-22T23:44:25.974Z,3.44
2018-12-22T23:46:54.798Z,3.42
2018-12-22T23:49:23.693Z,3.55
2018-12-22T23:51:54.440Z,3.58
2018-12-22T23:54:23.124Z,3.62
2018-12-22T23:56:51.881Z,3.61
2018-12-22T23:59:20.914Z,3.63
